Copper Creek, Canada
Current Conditions -  °F | °C
As of 8:07 PM on Wednesday 22 Oct 2014 (Local Time) from CYKA Reporting Station
Light Rain Light Rain  
Wind Chill: 54°   Ceiling: 5700
Heat Index: 54°   Visibility: 30mi
Dew Point: 45°   Wind: 13mph
Humidity: 72%   Direction: 90°E
Pressure: 29.57"   Gusts: NA
Location:  50.8°N, 120.76°W
Report Text: CYKA 230307Z 09011KT 30SM -RA BKN057 OVC075 12/07 A2957 RMK SC6AC2 SLP017 DENSITY ALT 1400FT
Loading
Personal Weather Stations






























Interactive Weather Map
Tropical Storm Tracking
New forecast layout! Learn more

10-Day Weather Forecast

Advertisements
Track Severe Weather on mobile